sensor_id;sensor_type;location;lat;lon;timestamp;temperature;humidity
18147;DHT22;9199;48.832;9.182;2023-08-17T00:01:40;20.10;99.90
18147;DHT22;9199;48.832;9.182;2023-08-17T00:04:07;20.10;99.90
18147;DHT22;9199;48.832;9.182;2023-08-17T00:06:34;20.10;99.90
18147;DHT22;9199;48.832;9.182;2023-08-17T00:09:01;20.00;99.90
18147;DHT22;9199;48.832;9.182;2023-08-17T00:11:29;20.10;99.90
18147;DHT22;9199;48.832;9.182;2023-08-17T00:13:55;20.00;99.90
18147;DHT22;9199;48.832;9.182;2023-08-17T00:16:22;20.00;99.90
18147;DHT22;9199;48.832;9.182;2023-08-17T00:18:50;20.00;99.90
18147;DHT22;9199;48.832;9.182;2023-08-17T00:21:17;20.00;99.90
18147;DHT22;9199;48.832;9.182;2023-08-17T00:23:44;20.00;99.90
18147;DHT22;9199;48.832;9.182;2023-08-17T00:26:10;20.00;99.90
18147;DHT22;9199;48.832;9.182;2023-08-17T00:28:37;20.10;99.90
18147;DHT22;9199;48.832;9.182;2023-08-17T00:31:04;20.00;99.90
18147;DHT22;9199;48.832;9.182;2023-08-17T00:33:30;20.10;99.90
18147;DHT22;9199;48.832;9.182;2023-08-17T00:35:58;20.10;99.90
18147;DHT22;9199;48.832;9.182;2023-08-17T00:38:25;20.00;99.90
18147;DHT22;9199;48.832;9.182;2023-08-17T00:40:52;20.00;99.90
18147;DHT22;9199;48.832;9.182;2023-08-17T00:43:19;20.00;99.90
18147;DHT22;9199;48.832;9.182;2023-08-17T00:45:47;20.00;99.90
18147;DHT22;9199;48.832;9.182;2023-08-17T00:48:14;20.00;99.90
18147;DHT22;9199;48.832;9.182;2023-08-17T00:50:41;20.00;99.90
18147;DHT22;9199;48.832;9.182;2023-08-17T00:53:09;20.00;99.90
18147;DHT22;9199;48.832;9.182;2023-08-17T00:55:38;20.00;99.90
18147;DHT22;9199;48.832;9.182;2023-08-17T00:58:05;20.00;99.90
18147;DHT22;9199;48.832;9.182;2023-08-17T01:00:32;20.00;99.90
18147;DHT22;9199;48.832;9.182;2023-08-17T01:02:59;19.90;99.90
18147;DHT22;9199;48.832;9.182;2023-08-17T01:05:26;20.00;99.90
18147;DHT22;9199;48.832;9.182;2023-08-17T01:07:52;20.00;99.90
18147;DHT22;9199;48.832;9.182;2023-08-17T01:10:21;20.00;99.90
18147;DHT22;9199;48.832;9.182;2023-08-17T01:12:53;20.00;99.90
18147;DHT22;9199;48.832;9.182;2023-08-17T01:15:27;20.10;99.90
18147;DHT22;9199;48.832;9.182;2023-08-17T01:17:58;20.10;99.90
18147;DHT22;9199;48.832;9.182;2023-08-17T01:20:27;20.10;99.90
18147;DHT22;9199;48.832;9.182;2023-08-17T01:22:55;20.10;99.90
18147;DHT22;9199;48.832;9.182;2023-08-17T01:25:26;20.20;99.90
18147;DHT22;9199;48.832;9.182;2023-08-17T01:27:53;20.20;99.90
18147;DHT22;9199;48.832;9.182;2023-08-17T01:30:19;20.20;99.90
18147;DHT22;9199;48.832;9.182;2023-08-17T01:32:49;20.20;99.90
18147;DHT22;9199;48.832;9.182;2023-08-17T01:35:22;20.20;99.90
18147;DHT22;9199;48.832;9.182;2023-08-17T01:37:53;20.20;99.90
18147;DHT22;9199;48.832;9.182;2023-08-17T01:40:20;20.20;99.90
18147;DHT22;9199;48.832;9.182;2023-08-17T01:42:49;20.30;99.90
18147;DHT22;9199;48.832;9.182;2023-08-17T01:45:17;20.30;99.90
18147;DHT22;9199;48.832;9.182;2023-08-17T01:47:44;20.30;99.90
18147;DHT22;9199;48.832;9.182;2023-08-17T01:50:11;20.30;99.90
18147;DHT22;9199;48.832;9.182;2023-08-17T01:52:37;20.40;99.90
18147;DHT22;9199;48.832;9.182;2023-08-17T01:55:05;20.30;99.90
18147;DHT22;9199;48.832;9.182;2023-08-17T01:57:31;20.40;99.90
18147;DHT22;9199;48.832;9.182;2023-08-17T02:00:00;20.30;99.90
18147;DHT22;9199;48.832;9.182;2023-08-17T02:02:28;20.30;99.90
18147;DHT22;9199;48.832;9.182;2023-08-17T02:04:55;20.30;99.90
18147;DHT22;9199;48.832;9.182;2023-08-17T02:07:22;20.30;99.90
18147;DHT22;9199;48.832;9.182;2023-08-17T02:09:48;20.40;99.90
18147;DHT22;9199;48.832;9.182;2023-08-17T02:12:15;20.40;99.90
18147;DHT22;9199;48.832;9.182;2023-08-17T02:14:42;20.40;99.90
18147;DHT22;9199;48.832;9.182;2023-08-17T02:17:10;20.40;99.90
18147;DHT22;9199;48.832;9.182;2023-08-17T02:19:36;20.40;99.90
18147;DHT22;9199;48.832;9.182;2023-08-17T02:22:04;20.40;99.90
18147;DHT22;9199;48.832;9.182;2023-08-17T02:24:31;20.40;99.90
18147;DHT22;9199;48.832;9.182;2023-08-17T02:26:57;20.40;99.90
18147;DHT22;9199;48.832;9.182;2023-08-17T02:29:24;20.40;99.90
18147;DHT22;9199;48.832;9.182;2023-08-17T02:31:51;20.40;99.90
18147;DHT22;9199;48.832;9.182;2023-08-17T02:34:19;20.40;99.90
18147;DHT22;9199;48.832;9.182;2023-08-17T02:36:45;20.40;99.90
18147;DHT22;9199;48.832;9.182;2023-08-17T02:39:12;20.40;99.90
18147;DHT22;9199;48.832;9.182;2023-08-17T02:41:39;20.40;99.90
18147;DHT22;9199;48.832;9.182;2023-08-17T02:44:06;20.40;99.90
18147;DHT22;9199;48.832;9.182;2023-08-17T02:46:32;20.40;99.90
18147;DHT22;9199;48.832;9.182;2023-08-17T02:48:59;20.40;99.90
18147;DHT22;9199;48.832;9.182;2023-08-17T02:51:27;20.40;99.90
18147;DHT22;9199;48.832;9.182;2023-08-17T02:53:54;20.40;99.90
18147;DHT22;9199;48.832;9.182;2023-08-17T02:56:21;20.40;99.90
18147;DHT22;9199;48.832;9.182;2023-08-17T02:58:47;20.40;99.90
18147;DHT22;9199;48.832;9.182;2023-08-17T03:01:14;20.40;99.90
18147;DHT22;9199;48.832;9.182;2023-08-17T03:03:41;20.50;99.90
18147;DHT22;9199;48.832;9.182;2023-08-17T03:06:08;20.50;99.90
18147;DHT22;9199;48.832;9.182;2023-08-17T03:08:36;20.40;99.90
18147;DHT22;9199;48.832;9.182;2023-08-17T03:11:02;20.40;99.90
18147;DHT22;9199;48.832;9.182;2023-08-17T03:13:29;20.40;99.90
18147;DHT22;9199;48.832;9.182;2023-08-17T03:15:56;20.40;99.90
18147;DHT22;9199;48.832;9.182;2023-08-17T03:18:22;20.40;99.90
18147;DHT22;9199;48.832;9.182;2023-08-17T03:20:49;20.40;99.90
18147;DHT22;9199;48.832;9.182;2023-08-17T03:23:15;20.40;99.90
18147;DHT22;9199;48.832;9.182;2023-08-17T03:25:44;20.40;99.90
18147;DHT22;9199;48.832;9.182;2023-08-17T03:28:11;20.40;99.90
18147;DHT22;9199;48.832;9.182;2023-08-17T03:30:38;20.40;99.90
18147;DHT22;9199;48.832;9.182;2023-08-17T03:33:04;20.30;99.90
18147;DHT22;9199;48.832;9.182;2023-08-17T03:35:31;20.30;99.90
18147;DHT22;9199;48.832;9.182;2023-08-17T03:37:58;20.30;99.90
18147;DHT22;9199;48.832;9.182;2023-08-17T03:40:24;20.30;99.90
18147;DHT22;9199;48.832;9.182;2023-08-17T03:42:53;20.40;99.90
18147;DHT22;9199;48.832;9.182;2023-08-17T03:45:19;20.40;99.90
18147;DHT22;9199;48.832;9.182;2023-08-17T03:47:46;20.40;99.90
18147;DHT22;9199;48.832;9.182;2023-08-17T03:50:13;20.40;99.90
18147;DHT22;9199;48.832;9.182;2023-08-17T03:52:39;20.40;99.90
18147;DHT22;9199;48.832;9.182;2023-08-17T03:55:06;20.40;99.90
18147;DHT22;9199;48.832;9.182;2023-08-17T03:57:33;20.40;99.90
18147;DHT22;9199;48.832;9.182;2023-08-17T04:00:02;20.40;99.90
18147;DHT22;9199;48.832;9.182;2023-08-17T04:02:30;20.40;99.90
18147;DHT22;9199;48.832;9.182;2023-08-17T04:04:57;20.40;99.90
18147;DHT22;9199;48.832;9.182;2023-08-17T04:07:24;20.40;99.90
18147;DHT22;9199;48.832;9.182;2023-08-17T04:09:50;20.40;99.90
18147;DHT22;9199;48.832;9.182;2023-08-17T04:12:17;20.40;99.90
18147;DHT22;9199;48.832;9.182;2023-08-17T04:14:44;20.40;99.90
18147;DHT22;9199;48.832;9.182;2023-08-17T04:17:12;20.40;99.90
18147;DHT22;9199;48.832;9.182;2023-08-17T04:19:39;20.40;99.90
18147;DHT22;9199;48.832;9.182;2023-08-17T04:22:06;20.40;99.90
18147;DHT22;9199;48.832;9.182;2023-08-17T04:24:32;20.50;99.90
18147;DHT22;9199;48.832;9.182;2023-08-17T04:26:59;20.50;99.90
18147;DHT22;9199;48.832;9.182;2023-08-17T04:29:26;20.50;99.90
18147;DHT22;9199;48.832;9.182;2023-08-17T04:31:53;20.50;99.90
18147;DHT22;9199;48.832;9.182;2023-08-17T04:34:21;20.50;99.90
18147;DHT22;9199;48.832;9.182;2023-08-17T04:36:48;20.50;99.90
18147;DHT22;9199;48.832;9.182;2023-08-17T04:39:15;20.50;99.90
18147;DHT22;9199;48.832;9.182;2023-08-17T04:41:41;20.50;99.90
18147;DHT22;9199;48.832;9.182;2023-08-17T04:44:08;20.50;99.90
18147;DHT22;9199;48.832;9.182;2023-08-17T04:46:35;20.60;99.90
18147;DHT22;9199;48.832;9.182;2023-08-17T04:49:02;20.60;99.90
18147;DHT22;9199;48.832;9.182;2023-08-17T04:51:30;20.60;99.90
18147;DHT22;9199;48.832;9.182;2023-08-17T04:53:56;20.60;99.90
18147;DHT22;9199;48.832;9.182;2023-08-17T04:56:23;20.60;99.90
18147;DHT22;9199;48.832;9.182;2023-08-17T04:58:50;20.60;99.90
18147;DHT22;9199;48.832;9.182;2023-08-17T05:01:16;20.60;99.90
18147;DHT22;9199;48.832;9.182;2023-08-17T05:03:43;20.60;99.90
18147;DHT22;9199;48.832;9.182;2023-08-17T05:06:10;20.80;99.90
18147;DHT22;9199;48.832;9.182;2023-08-17T05:08:38;20.90;99.90
18147;DHT22;9199;48.832;9.182;2023-08-17T05:11:05;21.00;99.90
18147;DHT22;9199;48.832;9.182;2023-08-17T05:13:32;21.10;99.90
18147;DHT22;9199;48.832;9.182;2023-08-17T05:15:58;21.20;99.90
18147;DHT22;9199;48.832;9.182;2023-08-17T05:18:25;21.30;99.90
18147;DHT22;9199;48.832;9.182;2023-08-17T05:20:52;21.40;99.90
18147;DHT22;9199;48.832;9.182;2023-08-17T05:23:18;21.40;99.90
18147;DHT22;9199;48.832;9.182;2023-08-17T05:25:47;21.40;99.90
18147;DHT22;9199;48.832;9.182;2023-08-17T05:28:14;21.50;99.90
18147;DHT22;9199;48.832;9.182;2023-08-17T05:30:41;21.50;99.90
18147;DHT22;9199;48.832;9.182;2023-08-17T05:33:07;21.50;99.90
18147;DHT22;9199;48.832;9.182;2023-08-17T05:35:34;21.60;99.90
18147;DHT22;9199;48.832;9.182;2023-08-17T05:38:01;21.60;99.90
18147;DHT22;9199;48.832;9.182;2023-08-17T05:40:29;21.60;99.90
18147;DHT22;9199;48.832;9.182;2023-08-17T05:42:58;21.70;99.90
18147;DHT22;9199;48.832;9.182;2023-08-17T05:45:24;21.70;99.90
18147;DHT22;9199;48.832;9.182;2023-08-17T05:47:51;21.80;99.90
18147;DHT22;9199;48.832;9.182;2023-08-17T05:50:18;21.80;99.90
18147;DHT22;9199;48.832;9.182;2023-08-17T05:52:45;21.90;99.90
18147;DHT22;9199;48.832;9.182;2023-08-17T05:55:12;22.00;99.90
18147;DHT22;9199;48.832;9.182;2023-08-17T05:57:38;22.00;99.90
18147;DHT22;9199;48.832;9.182;2023-08-17T06:00:08;22.10;99.90
18147;DHT22;9199;48.832;9.182;2023-08-17T06:02:37;22.10;99.90
18147;DHT22;9199;48.832;9.182;2023-08-17T06:05:05;22.20;99.90
18147;DHT22;9199;48.832;9.182;2023-08-17T06:07:33;22.30;99.90
18147;DHT22;9199;48.832;9.182;2023-08-17T06:09:59;22.40;99.90
18147;DHT22;9199;48.832;9.182;2023-08-17T06:12:26;22.40;99.90
18147;DHT22;9199;48.832;9.182;2023-08-17T06:14:53;22.50;99.90
18147;DHT22;9199;48.832;9.182;2023-08-17T06:17:21;22.50;99.90
18147;DHT22;9199;48.832;9.182;2023-08-17T06:19:48;22.50;99.90
18147;DHT22;9199;48.832;9.182;2023-08-17T06:22:14;22.40;99.90
18147;DHT22;9199;48.832;9.182;2023-08-17T06:24:41;22.40;99.90
18147;DHT22;9199;48.832;9.182;2023-08-17T06:27:08;22.40;99.90
18147;DHT22;9199;48.832;9.182;2023-08-17T06:29:34;22.40;99.90
18147;DHT22;9199;48.832;9.182;2023-08-17T06:32:01;22.50;99.90
18147;DHT22;9199;48.832;9.182;2023-08-17T06:34:29;22.50;99.90
18147;DHT22;9199;48.832;9.182;2023-08-17T06:37:01;22.50;99.90
18147;DHT22;9199;48.832;9.182;2023-08-17T06:39:28;22.50;99.90
18147;DHT22;9199;48.832;9.182;2023-08-17T06:41:55;22.50;99.90
18147;DHT22;9199;48.832;9.182;2023-08-17T06:44:22;22.50;99.90
18147;DHT22;9199;48.832;9.182;2023-08-17T06:46:48;22.50;99.90
18147;DHT22;9199;48.832;9.182;2023-08-17T06:49:15;22.50;99.90
18147;DHT22;9199;48.832;9.182;2023-08-17T06:51:43;22.50;99.90
18147;DHT22;9199;48.832;9.182;2023-08-17T06:54:10;22.60;99.90
18147;DHT22;9199;48.832;9.182;2023-08-17T06:56:37;22.60;99.90
18147;DHT22;9199;48.832;9.182;2023-08-17T06:59:04;22.70;99.90
18147;DHT22;9199;48.832;9.182;2023-08-17T07:01:30;22.80;99.90
18147;DHT22;9199;48.832;9.182;2023-08-17T07:03:57;22.80;99.90
18147;DHT22;9199;48.832;9.182;2023-08-17T07:06:24;22.90;99.90
18147;DHT22;9199;48.832;9.182;2023-08-17T07:08:52;23.00;99.90
18147;DHT22;9199;48.832;9.182;2023-08-17T07:11:19;23.10;99.90
18147;DHT22;9199;48.832;9.182;2023-08-17T07:13:46;23.20;99.90
18147;DHT22;9199;48.832;9.182;2023-08-17T07:16:13;23.40;99.90
18147;DHT22;9199;48.832;9.182;2023-08-17T07:18:39;23.60;99.90
18147;DHT22;9199;48.832;9.182;2023-08-17T07:21:06;23.80;99.90
18147;DHT22;9199;48.832;9.182;2023-08-17T07:23:33;24.00;99.90
18147;DHT22;9199;48.832;9.182;2023-08-17T07:26:01;24.10;99.90
18147;DHT22;9199;48.832;9.182;2023-08-17T07:28:28;24.30;99.90
18147;DHT22;9199;48.832;9.182;2023-08-17T07:30:55;24.50;99.90
18147;DHT22;9199;48.832;9.182;2023-08-17T07:33:21;24.70;99.90
18147;DHT22;9199;48.832;9.182;2023-08-17T07:35:48;24.70;99.90
18147;DHT22;9199;48.832;9.182;2023-08-17T07:38:15;24.60;99.90
18147;DHT22;9199;48.832;9.182;2023-08-17T07:40:42;24.60;99.90
18147;DHT22;9199;48.832;9.182;2023-08-17T07:43:10;24.90;99.90
18147;DHT22;9199;48.832;9.182;2023-08-17T07:45:37;25.40;99.90
18147;DHT22;9199;48.832;9.182;2023-08-17T07:48:04;25.70;99.90
18147;DHT22;9199;48.832;9.182;2023-08-17T07:50:31;25.80;99.90
18147;DHT22;9199;48.832;9.182;2023-08-17T07:52:58;25.80;99.90
18147;DHT22;9199;48.832;9.182;2023-08-17T07:55:25;25.80;99.90
18147;DHT22;9199;48.832;9.182;2023-08-17T07:57:52;25.70;99.90
18147;DHT22;9199;48.832;9.182;2023-08-17T08:00:20;25.60;99.90
18147;DHT22;9199;48.832;9.182;2023-08-17T08:02:47;25.60;99.90
18147;DHT22;9199;48.832;9.182;2023-08-17T08:05:14;25.40;99.90
18147;DHT22;9199;48.832;9.182;2023-08-17T08:07:40;25.30;99.90
18147;DHT22;9199;48.832;9.182;2023-08-17T08:10:08;25.40;99.90
18147;DHT22;9199;48.832;9.182;2023-08-17T08:12:35;25.60;99.90
18147;DHT22;9199;48.832;9.182;2023-08-17T08:15:01;25.80;99.90
18147;DHT22;9199;48.832;9.182;2023-08-17T08:17:29;26.00;99.90
18147;DHT22;9199;48.832;9.182;2023-08-17T08:19:57;26.20;99.90
18147;DHT22;9199;48.832;9.182;2023-08-17T08:22:24;26.10;99.90
18147;DHT22;9199;48.832;9.182;2023-08-17T08:24:51;26.20;99.90
18147;DHT22;9199;48.832;9.182;2023-08-17T08:27:18;26.40;99.90
18147;DHT22;9199;48.832;9.182;2023-08-17T08:29:45;26.60;99.90
18147;DHT22;9199;48.832;9.182;2023-08-17T08:32:12;26.70;99.90
18147;DHT22;9199;48.832;9.182;2023-08-17T08:34:40;26.80;99.90
18147;DHT22;9199;48.832;9.182;2023-08-17T08:37:07;26.50;99.90
18147;DHT22;9199;48.832;9.182;2023-08-17T08:39:48;26.30;99.90
18147;DHT22;9199;48.832;9.182;2023-08-17T08:42:15;26.30;99.90
18147;DHT22;9199;48.832;9.182;2023-08-17T08:44:42;26.30;99.90
18147;DHT22;9199;48.832;9.182;2023-08-17T08:47:09;26.40;99.90
18147;DHT22;9199;48.832;9.182;2023-08-17T08:49:40;26.60;99.90
18147;DHT22;9199;48.832;9.182;2023-08-17T08:52:14;26.80;99.90
18147;DHT22;9199;48.832;9.182;2023-08-17T08:54:49;26.80;99.90
18147;DHT22;9199;48.832;9.182;2023-08-17T08:57:17;27.20;99.90
18147;DHT22;9199;48.832;9.182;2023-08-17T08:59:45;27.60;99.90
18147;DHT22;9199;48.832;9.182;2023-08-17T09:02:15;28.00;99.90
18147;DHT22;9199;48.832;9.182;2023-08-17T09:04:43;28.30;99.90
18147;DHT22;9199;48.832;9.182;2023-08-17T09:07:11;28.40;99.90
18147;DHT22;9199;48.832;9.182;2023-08-17T09:09:38;28.30;99.90
18147;DHT22;9199;48.832;9.182;2023-08-17T09:12:07;28.50;99.90
18147;DHT22;9199;48.832;9.182;2023-08-17T09:14:34;28.70;99.90
18147;DHT22;9199;48.832;9.182;2023-08-17T09:17:02;29.00;99.90
18147;DHT22;9199;48.832;9.182;2023-08-17T09:19:31;29.30;99.90
18147;DHT22;9199;48.832;9.182;2023-08-17T09:22:00;29.30;99.90
18147;DHT22;9199;48.832;9.182;2023-08-17T09:24:33;29.20;99.90
18147;DHT22;9199;48.832;9.182;2023-08-17T09:27:00;29.20;99.90
18147;DHT22;9199;48.832;9.182;2023-08-17T09:29:27;28.80;99.90
18147;DHT22;9199;48.832;9.182;2023-08-17T09:31:57;28.70;99.90
18147;DHT22;9199;48.832;9.182;2023-08-17T09:34:24;28.80;99.90
18147;DHT22;9199;48.832;9.182;2023-08-17T09:36:50;28.80;99.90
18147;DHT22;9199;48.832;9.182;2023-08-17T09:39:18;29.30;99.90
18147;DHT22;9199;48.832;9.182;2023-08-17T09:41:45;29.70;99.90
18147;DHT22;9199;48.832;9.182;2023-08-17T09:44:12;30.00;99.90
18147;DHT22;9199;48.832;9.182;2023-08-17T09:46:41;30.70;99.90
18147;DHT22;9199;48.832;9.182;2023-08-17T09:49:08;30.90;99.90
18147;DHT22;9199;48.832;9.182;2023-08-17T09:51:36;30.70;99.90
18147;DHT22;9199;48.832;9.182;2023-08-17T09:54:03;30.60;99.90
18147;DHT22;9199;48.832;9.182;2023-08-17T09:56:31;31.10;99.90
18147;DHT22;9199;48.832;9.182;2023-08-17T09:58:59;31.30;99.90
18147;DHT22;9199;48.832;9.182;2023-08-17T10:01:28;31.70;99.90
18147;DHT22;9199;48.832;9.182;2023-08-17T10:03:55;32.00;99.90
18147;DHT22;9199;48.832;9.182;2023-08-17T10:06:24;32.60;99.90
18147;DHT22;9199;48.832;9.182;2023-08-17T10:08:53;33.40;99.90
18147;DHT22;9199;48.832;9.182;2023-08-17T10:11:22;33.80;98.30
18147;DHT22;9199;48.832;9.182;2023-08-17T10:13:54;34.30;97.00
18147;DHT22;9199;48.832;9.182;2023-08-17T10:16:26;34.60;95.90
18147;DHT22;9199;48.832;9.182;2023-08-17T10:18:55;34.60;94.80
18147;DHT22;9199;48.832;9.182;2023-08-17T10:21:29;34.80;94.10
18147;DHT22;9199;48.832;9.182;2023-08-17T10:23:57;34.60;94.30
18147;DHT22;9199;48.832;9.182;2023-08-17T10:26:25;35.00;93.30
18147;DHT22;9199;48.832;9.182;2023-08-17T10:28:53;35.00;92.80
18147;DHT22;9199;48.832;9.182;2023-08-17T10:31:23;35.40;93.00
18147;DHT22;9199;48.832;9.182;2023-08-17T10:33:50;35.50;93.10
18147;DHT22;9199;48.832;9.182;2023-08-17T10:36:17;35.20;92.20
18147;DHT22;9199;48.832;9.182;2023-08-17T10:38:45;34.60;93.50
18147;DHT22;9199;48.832;9.182;2023-08-17T10:41:12;33.80;94.10
18147;DHT22;9199;48.832;9.182;2023-08-17T10:43:57;33.80;94.10
18147;DHT22;9199;48.832;9.182;2023-08-17T10:46:34;34.30;92.90
18147;DHT22;9199;48.832;9.182;2023-08-17T10:49:03;34.30;92.80
18147;DHT22;9199;48.832;9.182;2023-08-17T10:51:30;34.50;92.80
18147;DHT22;9199;48.832;9.182;2023-08-17T10:53:59;34.80;93.10
18147;DHT22;9199;48.832;9.182;2023-08-17T10:56:28;35.20;92.20
18147;DHT22;9199;48.832;9.182;2023-08-17T10:58:59;35.20;91.70
18147;DHT22;9199;48.832;9.182;2023-08-17T11:01:36;35.40;92.00
18147;DHT22;9199;48.832;9.182;2023-08-17T11:04:13;35.30;90.70
18147;DHT22;9199;48.832;9.182;2023-08-17T11:06:42;35.40;91.30
18147;DHT22;9199;48.832;9.182;2023-08-17T11:09:09;35.90;90.20
18147;DHT22;9199;48.832;9.182;2023-08-17T11:11:37;36.20;86.90
18147;DHT22;9199;48.832;9.182;2023-08-17T11:14:05;35.90;89.10
18147;DHT22;9199;48.832;9.182;2023-08-17T11:16:32;35.90;90.00
18147;DHT22;9199;48.832;9.182;2023-08-17T11:19:00;35.80;90.30
18147;DHT22;9199;48.832;9.182;2023-08-17T11:21:27;36.00;89.20
18147;DHT22;9199;48.832;9.182;2023-08-17T11:23:56;35.70;89.00
18147;DHT22;9199;48.832;9.182;2023-08-17T11:26:23;35.80;88.50
18147;DHT22;9199;48.832;9.182;2023-08-17T11:28:50;36.20;86.40
18147;DHT22;9199;48.832;9.182;2023-08-17T11:31:18;37.00;83.30
18147;DHT22;9199;48.832;9.182;2023-08-17T11:33:45;36.90;83.10
18147;DHT22;9199;48.832;9.182;2023-08-17T11:36:12;37.20;84.30
18147;DHT22;9199;48.832;9.182;2023-08-17T11:38:41;38.00;80.20
18147;DHT22;9199;48.832;9.182;2023-08-17T11:41:08;38.50;79.50
18147;DHT22;9199;48.832;9.182;2023-08-17T11:43:35;38.90;80.20
18147;DHT22;9199;48.832;9.182;2023-08-17T11:46:03;39.20;78.00
18147;DHT22;9199;48.832;9.182;2023-08-17T11:48:31;39.00;78.10
18147;DHT22;9199;48.832;9.182;2023-08-17T11:50:59;39.10;77.00
18147;DHT22;9199;48.832;9.182;2023-08-17T11:53:33;38.90;76.10
18147;DHT22;9199;48.832;9.182;2023-08-17T11:56:00;38.40;76.90
18147;DHT22;9199;48.832;9.182;2023-08-17T11:58:36;37.30;80.00
18147;DHT22;9199;48.832;9.182;2023-08-17T12:01:09;36.00;81.90
18147;DHT22;9199;48.832;9.182;2023-08-17T12:03:38;35.40;83.80
18147;DHT22;9199;48.832;9.182;2023-08-17T12:06:05;35.40;83.50
18147;DHT22;9199;48.832;9.182;2023-08-17T12:08:32;35.80;83.30
18147;DHT22;9199;48.832;9.182;2023-08-17T12:10:58;35.20;83.00
18147;DHT22;9199;48.832;9.182;2023-08-17T12:13:30;34.70;86.10
18147;DHT22;9199;48.832;9.182;2023-08-17T12:15:57;33.80;88.50
18147;DHT22;9199;48.832;9.182;2023-08-17T12:18:25;33.30;90.10
18147;DHT22;9199;48.832;9.182;2023-08-17T12:20:54;33.10;91.00
18147;DHT22;9199;48.832;9.182;2023-08-17T12:23:21;33.20;91.10
18147;DHT22;9199;48.832;9.182;2023-08-17T12:25:52;33.10;92.00
18147;DHT22;9199;48.832;9.182;2023-08-17T12:28:19;32.80;91.80
18147;DHT22;9199;48.832;9.182;2023-08-17T12:30:46;32.80;92.60
18147;DHT22;9199;48.832;9.182;2023-08-17T12:33:12;32.50;93.10
18147;DHT22;9199;48.832;9.182;2023-08-17T12:35:39;31.90;93.90
18147;DHT22;9199;48.832;9.182;2023-08-17T12:38:07;31.40;95.10
18147;DHT22;9199;48.832;9.182;2023-08-17T12:40:34;30.90;95.90
18147;DHT22;9199;48.832;9.182;2023-08-17T12:43:01;30.50;96.80
18147;DHT22;9199;48.832;9.182;2023-08-17T12:45:27;30.10;97.70
18147;DHT22;9199;48.832;9.182;2023-08-17T12:47:55;29.80;98.20
18147;DHT22;9199;48.832;9.182;2023-08-17T12:50:22;29.60;98.60
18147;DHT22;9199;48.832;9.182;2023-08-17T12:52:49;29.50;99.20
18147;DHT22;9199;48.832;9.182;2023-08-17T12:55:17;29.20;99.70
18147;DHT22;9199;48.832;9.182;2023-08-17T12:57:43;29.00;99.90
18147;DHT22;9199;48.832;9.182;2023-08-17T13:00:11;28.80;99.90
18147;DHT22;9199;48.832;9.182;2023-08-17T13:02:38;28.70;99.90
18147;DHT22;9199;48.832;9.182;2023-08-17T13:05:05;28.50;99.90
18147;DHT22;9199;48.832;9.182;2023-08-17T13:07:32;28.40;99.90
18147;DHT22;9199;48.832;9.182;2023-08-17T13:09:58;28.30;99.90
18147;DHT22;9199;48.832;9.182;2023-08-17T13:12:26;28.20;99.90
18147;DHT22;9199;48.832;9.182;2023-08-17T13:14:53;27.90;99.90
18147;DHT22;9199;48.832;9.182;2023-08-17T13:17:20;27.60;99.90
18147;DHT22;9199;48.832;9.182;2023-08-17T13:19:46;27.30;99.90
18147;DHT22;9199;48.832;9.182;2023-08-17T13:22:16;27.00;99.90
18147;DHT22;9199;48.832;9.182;2023-08-17T13:24:43;26.80;99.90
18147;DHT22;9199;48.832;9.182;2023-08-17T13:27:09;26.60;99.90
18147;DHT22;9199;48.832;9.182;2023-08-17T13:29:37;26.50;99.90
18147;DHT22;9199;48.832;9.182;2023-08-17T13:32:05;26.30;99.90
18147;DHT22;9199;48.832;9.182;2023-08-17T13:34:32;25.90;99.90
18147;DHT22;9199;48.832;9.182;2023-08-17T13:36:59;25.60;99.90
18147;DHT22;9199;48.832;9.182;2023-08-17T13:39:25;25.40;99.90
18147;DHT22;9199;48.832;9.182;2023-08-17T13:41:52;25.30;99.90
18147;DHT22;9199;48.832;9.182;2023-08-17T13:44:19;25.20;99.90
18147;DHT22;9199;48.832;9.182;2023-08-17T13:46:47;25.10;99.90
18147;DHT22;9199;48.832;9.182;2023-08-17T13:49:13;25.10;99.90
18147;DHT22;9199;48.832;9.182;2023-08-17T13:51:40;25.00;99.90
18147;DHT22;9199;48.832;9.182;2023-08-17T13:54:07;25.00;99.90
18147;DHT22;9199;48.832;9.182;2023-08-17T13:56:33;24.90;99.90
18147;DHT22;9199;48.832;9.182;2023-08-17T13:59:00;24.80;99.90
18147;DHT22;9199;48.832;9.182;2023-08-17T14:01:28;24.70;99.90
18147;DHT22;9199;48.832;9.182;2023-08-17T14:03:56;24.60;99.90
18147;DHT22;9199;48.832;9.182;2023-08-17T14:06:22;24.50;99.90
18147;DHT22;9199;48.832;9.182;2023-08-17T14:08:49;24.50;99.90
18147;DHT22;9199;48.832;9.182;2023-08-17T14:11:16;24.50;99.90
18147;DHT22;9199;48.832;9.182;2023-08-17T14:13:43;24.50;99.90
18147;DHT22;9199;48.832;9.182;2023-08-17T14:16:10;24.50;99.90
18147;DHT22;9199;48.832;9.182;2023-08-17T14:18:36;24.50;99.90
18147;DHT22;9199;48.832;9.182;2023-08-17T14:21:04;24.50;99.90
18147;DHT22;9199;48.832;9.182;2023-08-17T14:23:31;24.60;99.90
18147;DHT22;9199;48.832;9.182;2023-08-17T14:25:57;24.70;99.90
18147;DHT22;9199;48.832;9.182;2023-08-17T14:28:24;24.70;99.90
18147;DHT22;9199;48.832;9.182;2023-08-17T14:30:51;24.70;99.90
18147;DHT22;9199;48.832;9.182;2023-08-17T14:33:18;24.80;99.90
18147;DHT22;9199;48.832;9.182;2023-08-17T14:35:45;24.80;99.90
18147;DHT22;9199;48.832;9.182;2023-08-17T14:38:13;24.80;99.90
18147;DHT22;9199;48.832;9.182;2023-08-17T14:40:42;24.90;99.90
18147;DHT22;9199;48.832;9.182;2023-08-17T14:43:10;24.90;99.90
18147;DHT22;9199;48.832;9.182;2023-08-17T14:45:39;25.10;99.90
18147;DHT22;9199;48.832;9.182;2023-08-17T14:48:06;25.20;99.90
18147;DHT22;9199;48.832;9.182;2023-08-17T14:50:33;25.40;99.90
18147;DHT22;9199;48.832;9.182;2023-08-17T14:53:00;25.60;99.90
18147;DHT22;9199;48.832;9.182;2023-08-17T14:55:29;25.80;99.90
18147;DHT22;9199;48.832;9.182;2023-08-17T14:57:55;26.00;99.90
18147;DHT22;9199;48.832;9.182;2023-08-17T15:00:22;26.30;99.90
18147;DHT22;9199;48.832;9.182;2023-08-17T15:02:49;26.40;99.90
18147;DHT22;9199;48.832;9.182;2023-08-17T15:05:16;26.60;99.90
18147;DHT22;9199;48.832;9.182;2023-08-17T15:07:43;26.70;99.90
18147;DHT22;9199;48.832;9.182;2023-08-17T15:10:10;26.70;99.90
18147;DHT22;9199;48.832;9.182;2023-08-17T15:12:38;26.70;99.90
18147;DHT22;9199;48.832;9.182;2023-08-17T15:15:05;26.80;99.90
18147;DHT22;9199;48.832;9.182;2023-08-17T15:17:32;26.90;99.90
18147;DHT22;9199;48.832;9.182;2023-08-17T15:19:59;26.90;99.90
18147;DHT22;9199;48.832;9.182;2023-08-17T15:22:26;26.90;99.90
18147;DHT22;9199;48.832;9.182;2023-08-17T15:24:53;27.00;99.90
18147;DHT22;9199;48.832;9.182;2023-08-17T15:27:20;27.20;99.90
18147;DHT22;9199;48.832;9.182;2023-08-17T15:29:48;27.40;99.90
18147;DHT22;9199;48.832;9.182;2023-08-17T15:32:15;27.50;99.90
18147;DHT22;9199;48.832;9.182;2023-08-17T15:34:41;27.60;99.90
18147;DHT22;9199;48.832;9.182;2023-08-17T15:37:08;27.70;99.90
18147;DHT22;9199;48.832;9.182;2023-08-17T15:39:35;27.80;99.90
18147;DHT22;9199;48.832;9.182;2023-08-17T15:42:01;27.80;99.90
18147;DHT22;9199;48.832;9.182;2023-08-17T15:44:28;27.90;99.90
18147;DHT22;9199;48.832;9.182;2023-08-17T15:46:59;27.70;99.90